Time;durP1;ratioP1;P1;durP2;ratioP2;P2;SDS_P1;SDS_P2;PMS_P1;PMS_P2;Temp;Humidity;BMP_temperature;BMP_pressure;BME280_temperature;BME280_humidity;BME280_pressure;Samples;Min_cycle;Max_cycle;Signal;HPM_P1;HPM_P2
2022/10/06 00:02:11;;;;;;;3.22;3.13;;;10.90;99.90;;;;;;4175631;28;20119;-54
2022/10/06 00:04:32;;;;;;;6.82;5.22;;;11.00;99.90;;;;;;4175873;28;20448;-54
2022/10/06 00:06:53;;;;;;;4.07;3.75;;;10.90;99.90;;;;;;4175669;28;20527;-54
2022/10/06 00:09:13;;;;;;;3.97;2.88;;;10.80;99.90;;;;;;4167709;28;20405;-54
2022/10/06 00:11:34;;;;;;;4.07;3.97;;;10.90;99.90;;;;;;4171117;28;20040;-53
2022/10/06 00:13:54;;;;;;;4.93;4.63;;;11.00;99.90;;;;;;4166991;28;20052;-53
2022/10/06 00:16:21;;;;;;;3.88;3.70;;;11.00;99.90;;;;;;4164742;28;20053;-54
2022/10/06 00:18:42;;;;;;;4.22;4.13;;;10.90;99.90;;;;;;4164810;28;20455;-54
2022/10/06 00:21:03;;;;;;;5.10;5.00;;;11.00;99.90;;;;;;4164443;28;20084;-53
2022/10/06 00:23:24;;;;;;;3.78;3.67;;;11.00;99.90;;;;;;4164543;28;20111;-54
2022/10/06 00:25:45;;;;;;;4.82;4.50;;;11.00;99.90;;;;;;4164523;28;20099;-54
2022/10/06 00:28:05;;;;;;;3.72;3.53;;;11.00;99.90;;;;;;4164403;28;20057;-53
2022/10/06 00:30:28;;;;;;;4.03;3.22;;;11.00;99.90;;;;;;4164265;28;20067;-53
2022/10/06 00:32:56;;;;;;;4.03;3.83;;;11.10;99.90;;;;;;4164455;28;20079;-54
2022/10/06 00:35:16;;;;;;;3.67;3.45;;;11.00;99.90;;;;;;4164135;28;20056;-54
2022/10/06 00:37:37;;;;;;;3.63;3.60;;;11.00;99.90;;;;;;4164167;28;20155;-53
2022/10/06 00:39:57;;;;;;;3.67;3.38;;;10.90;99.90;;;;;;4164038;28;20052;-53
2022/10/06 00:42:26;;;;;;;3.75;3.53;;;10.70;99.90;;;;;;4163946;28;20055;-54
2022/10/06 00:44:50;;;;;;;4.68;4.30;;;10.50;99.90;;;;;;4164278;28;20056;-54
2022/10/06 00:47:10;;;;;;;3.65;3.50;;;10.50;99.90;;;;;;4164342;28;20055;-54
2022/10/06 00:49:37;;;;;;;4.50;4.15;;;10.50;99.90;;;;;;4164243;28;20132;-53
2022/10/06 00:52:07;;;;;;;4.43;4.13;;;10.50;99.90;;;;;;4164181;28;20064;-53
2022/10/06 00:54:29;;;;;;;4.32;4.10;;;10.40;99.90;;;;;;4163982;28;20052;-53
2022/10/06 00:56:50;;;;;;;4.05;3.45;;;10.60;99.90;;;;;;4163854;28;20111;-54
2022/10/06 00:59:13;;;;;;;4.53;4.20;;;10.70;99.90;;;;;;4163328;28;20060;-53
2022/10/06 01:01:35;;;;;;;3.67;3.58;;;10.70;99.90;;;;;;4164002;28;20137;-54
2022/10/06 01:04:03;;;;;;;4.13;3.70;;;10.70;99.90;;;;;;4163862;28;20044;-54
2022/10/06 01:06:23;;;;;;;4.57;4.18;;;10.50;99.90;;;;;;4163675;28;20048;-54
2022/10/06 01:08:44;;;;;;;5.13;4.35;;;10.30;99.90;;;;;;4175267;28;20138;-54
2022/10/06 01:11:11;;;;;;;4.57;4.28;;;10.20;99.90;;;;;;4163765;28;20083;-54
2022/10/06 01:13:32;;;;;;;12.15;5.00;;;10.10;99.90;;;;;;4164045;28;20095;-54
2022/10/06 01:16:02;;;;;;;33.97;5.18;;;10.10;99.90;;;;;;4163825;28;20133;-53
2022/10/06 01:18:25;;;;;;;7.07;5.65;;;10.20;99.90;;;;;;4163724;28;20133;-54
2022/10/06 01:21:39;;;;;;;5.22;4.93;;;10.10;99.90;;;;;;4162806;28;20567;-54
2022/10/06 01:24:01;;;;;;;4.53;4.43;;;10.10;99.90;;;;;;4161627;28;20083;-54
2022/10/06 01:26:23;;;;;;;4.65;4.55;;;10.20;99.90;;;;;;4161522;28;20096;-54
2022/10/06 01:28:45;;;;;;;4.70;4.50;;;10.30;99.90;;;;;;4161707;28;20144;-54
2022/10/06 01:31:08;;;;;;;3.60;3.35;;;10.40;99.90;;;;;;4161253;28;20052;-53
2022/10/06 01:33:29;;;;;;;3.20;3.20;;;10.40;99.90;;;;;;4163678;28;20060;-54
2022/10/06 01:35:51;;;;;;;3.67;3.47;;;10.50;99.90;;;;;;4177625;28;20051;-54
2022/10/06 01:38:12;;;;;;;3.17;2.92;;;10.50;99.90;;;;;;4177893;28;20052;-54
2022/10/06 01:40:32;;;;;;;3.15;3.15;;;10.50;99.90;;;;;;4177479;28;20420;-54
2022/10/06 01:42:53;;;;;;;3.70;3.60;;;10.50;99.90;;;;;;4178061;28;20091;-54
2022/10/06 01:45:13;;;;;;;6.50;2.80;;;10.40;99.90;;;;;;4177820;28;20080;-54
2022/10/06 01:47:34;;;;;;;4.53;3.97;;;10.40;99.90;;;;;;4177815;28;20055;-54
2022/10/06 01:49:55;;;;;;;4.75;4.32;;;10.30;99.90;;;;;;4177530;28;20116;-54
2022/10/06 01:52:15;;;;;;;6.50;5.38;;;10.20;99.90;;;;;;4177086;28;20064;-54
2022/10/06 01:54:36;;;;;;;4.90;4.70;;;10.00;99.90;;;;;;4177693;28;20064;-54
2022/10/06 01:56:57;;;;;;;29.02;4.40;;;10.00;99.90;;;;;;4177315;28;20055;-54
2022/10/06 01:59:17;;;;;;;2.97;2.97;;;10.00;99.90;;;;;;4178599;28;20151;-53
2022/10/06 02:01:38;;;;;;;3.03;2.92;;;9.90;99.90;;;;;;4178172;28;20051;-54
2022/10/06 02:03:59;;;;;;;2.90;2.90;;;9.90;99.90;;;;;;4179586;28;20518;-54
2022/10/06 02:06:20;;;;;;;3.78;3.58;;;10.00;99.90;;;;;;4166127;28;20059;-55
2022/10/06 02:08:41;;;;;;;3.33;3.10;;;9.90;99.90;;;;;;4162780;28;20064;-53
2022/10/06 02:11:09;;;;;;;2.53;2.53;;;9.90;99.90;;;;;;4162035;28;20096;-55
2022/10/06 02:13:30;;;;;;;2.83;2.60;;;9.80;99.90;;;;;;4162857;28;20099;-54
2022/10/06 02:15:56;;;;;;;2.92;2.90;;;9.90;99.90;;;;;;4163151;28;20082;-54
2022/10/06 02:18:16;;;;;;;3.10;2.90;;;9.90;99.90;;;;;;4162960;28;20412;-54
2022/10/06 02:20:37;;;;;;;2.38;2.28;;;10.00;99.90;;;;;;4162550;28;20052;-54
2022/10/06 02:22:58;;;;;;;2.58;2.58;;;9.90;99.90;;;;;;4162435;28;20495;-54
2022/10/06 02:25:18;;;;;;;3.13;3.03;;;9.90;99.90;;;;;;4162911;28;20107;-53
2022/10/06 02:27:39;;;;;;;16.80;3.90;;;9.80;99.90;;;;;;4162838;28;20052;-54
2022/10/06 02:30:00;;;;;;;3.95;3.85;;;9.60;99.90;;;;;;4168183;28;20055;-54
2022/10/06 02:32:21;;;;;;;4.22;4.13;;;9.70;99.90;;;;;;4179110;28;20055;-54
2022/10/06 02:34:42;;;;;;;4.40;4.25;;;9.60;99.90;;;;;;4164111;28;20103;-54
2022/10/06 02:37:04;;;;;;;2.95;2.90;;;9.50;99.90;;;;;;4162634;28;20122;-54
2022/10/06 02:39:24;;;;;;;7.82;3.88;;;9.50;99.90;;;;;;4162400;28;20091;-54
2022/10/06 02:41:45;;;;;;;8.85;4.88;;;9.40;99.90;;;;;;4162685;28;20516;-54
2022/10/06 02:44:05;;;;;;;8.15;3.70;;;9.40;99.90;;;;;;4162402;28;20409;-54
2022/10/06 02:46:26;;;;;;;4.35;3.88;;;9.40;99.90;;;;;;4162473;28;20127;-53
2022/10/06 02:48:47;;;;;;;3.85;3.63;;;9.50;99.90;;;;;;4162376;28;20057;-54
2022/10/06 02:51:14;;;;;;;4.00;3.90;;;9.50;99.90;;;;;;4162151;28;20604;-53
2022/10/06 02:53:36;;;;;;;3.72;3.63;;;9.60;99.90;;;;;;4162659;28;20053;-54
2022/10/06 02:56:05;;;;;;;3.53;3.33;;;9.60;99.90;;;;;;4162782;28;20589;-54
2022/10/06 02:58:28;;;;;;;3.28;3.08;;;9.60;99.90;;;;;;4162255;28;20134;-53
2022/10/06 03:00:50;;;;;;;2.78;2.70;;;9.70;99.90;;;;;;4172381;28;20103;-54
2022/10/06 03:03:10;;;;;;;3.03;2.90;;;9.70;99.90;;;;;;4161981;28;20543;-54
2022/10/06 03:05:30;;;;;;;2.53;2.53;;;9.70;99.90;;;;;;4162052;28;20056;-54
2022/10/06 03:07:51;;;;;;;3.05;2.95;;;9.50;99.90;;;;;;4170063;28;20110;-53
2022/10/06 03:10:11;;;;;;;3.92;3.75;;;9.40;99.90;;;;;;4178801;28;20060;-54
2022/10/06 03:12:32;;;;;;;3.08;2.97;;;9.30;99.90;;;;;;4179123;28;20051;-54
2022/10/06 03:14:52;;;;;;;2.50;2.40;;;9.30;99.90;;;;;;4178520;28;20128;-53
2022/10/06 03:17:13;;;;;;;4.82;3.08;;;9.40;99.90;;;;;;4162253;28;20068;-54
2022/10/06 03:19:33;;;;;;;2.40;2.20;;;9.30;99.90;;;;;;4162304;28;20133;-54
2022/10/06 03:21:54;;;;;;;2.92;2.83;;;9.30;99.90;;;;;;4162497;28;20160;-54
2022/10/06 03:24:14;;;;;;;2.58;2.33;;;9.30;99.90;;;;;;4162555;28;20168;-54
2022/10/06 03:26:44;;;;;;;2.28;2.17;;;9.30;99.90;;;;;;4169685;28;20075;-54
2022/10/06 03:29:05;;;;;;;2.85;2.85;;;9.30;99.90;;;;;;4178750;28;20596;-54
2022/10/06 03:31:32;;;;;;;6.47;3.85;;;9.20;99.90;;;;;;4162257;28;20444;-54
2022/10/06 03:33:56;;;;;;;2.92;2.83;;;9.20;99.90;;;;;;4162194;28;20095;-53
2022/10/06 03:36:19;;;;;;;2.67;2.60;;;9.20;99.90;;;;;;4162122;28;20566;-54
2022/10/06 03:38:40;;;;;;;3.50;3.35;;;9.30;99.90;;;;;;4162052;28;20095;-53
2022/10/06 03:41:11;;;;;;;2.40;2.30;;;9.30;99.90;;;;;;4161898;28;20052;-54
2022/10/06 03:43:32;;;;;;;2.10;2.00;;;9.20;99.90;;;;;;4162506;28;20079;-54
2022/10/06 03:45:56;;;;;;;2.40;2.30;;;9.10;99.90;;;;;;4165529;28;20056;-54
2022/10/06 03:48:16;;;;;;;2.90;2.90;;;9.20;99.90;;;;;;4165306;28;20076;-54
2022/10/06 03:50:37;;;;;;;3.33;3.30;;;9.10;99.90;;;;;;4164985;28;20570;-53
2022/10/06 03:52:57;;;;;;;4.10;4.10;;;9.10;99.90;;;;;;4164942;28;20412;-55
2022/10/06 03:55:18;;;;;;;3.97;3.88;;;8.90;99.90;;;;;;4164712;28;20053;-54
2022/10/06 03:57:38;;;;;;;3.42;3.22;;;8.80;99.90;;;;;;4176508;28;20088;-54
2022/10/06 03:59:59;;;;;;;17.67;3.22;;;8.70;99.90;;;;;;4164898;28;20056;-54
2022/10/06 04:02:20;;;;;;;3.33;3.22;;;8.70;99.90;;;;;;4164649;28;20053;-54
2022/10/06 04:04:40;;;;;;;4.32;4.07;;;8.70;99.90;;;;;;4164996;28;20061;-54
2022/10/06 04:07:01;;;;;;;6.45;3.80;;;8.60;99.90;;;;;;4164640;28;20060;-54
2022/10/06 04:09:22;;;;;;;22.60;3.75;;;8.50;99.90;;;;;;4164750;28;20064;-53
2022/10/06 04:11:44;;;;;;;4.47;3.33;;;8.40;99.90;;;;;;4164626;28;20047;-53
2022/10/06 04:14:07;;;;;;;4.93;3.67;;;8.40;99.90;;;;;;4164504;28;20061;-53
2022/10/06 04:16:30;;;;;;;3.17;3.17;;;8.40;99.90;;;;;;4164614;28;20464;-53
2022/10/06 04:18:53;;;;;;;3.08;2.88;;;8.40;99.90;;;;;;4164332;28;20061;-53
2022/10/06 04:21:15;;;;;;;2.97;2.90;;;8.50;99.90;;;;;;4165956;28;20136;-53
2022/10/06 04:23:35;;;;;;;3.78;3.67;;;8.50;99.90;;;;;;4175341;28;20049;-54
2022/10/06 04:26:01;;;;;;;3.58;3.30;;;8.60;99.90;;;;;;4175141;28;20508;-54
2022/10/06 04:28:21;;;;;;;4.00;3.58;;;8.70;99.90;;;;;;4164415;28;20060;-54
2022/10/06 04:30:42;;;;;;;3.35;3.35;;;8.80;99.90;;;;;;4164197;28;20088;-55
2022/10/06 04:33:03;;;;;;;3.08;2.97;;;8.90;99.90;;;;;;4175409;28;20056;-54
2022/10/06 04:35:23;;;;;;;3.50;3.40;;;8.80;99.90;;;;;;4168299;28;20095;-53
2022/10/06 04:37:45;;;;;;;2.90;2.80;;;8.70;99.90;;;;;;4164482;28;20100;-53
2022/10/06 04:40:06;;;;;;;3.47;3.33;;;8.60;99.90;;;;;;4164345;28;20056;-53
2022/10/06 04:42:28;;;;;;;2.95;2.88;;;8.70;99.90;;;;;;4164472;28;20061;-54
2022/10/06 04:44:54;;;;;;;3.10;3.00;;;8.70;99.90;;;;;;4164286;28;20049;-54
2022/10/06 04:47:15;;;;;;;4.85;3.13;;;8.70;99.90;;;;;;4164412;28;20060;-54
2022/10/06 04:49:35;;;;;;;2.80;2.80;;;8.60;99.90;;;;;;4164254;28;20064;-54
2022/10/06 04:51:56;;;;;;;17.65;4.55;;;8.50;99.90;;;;;;4163963;28;20056;-56
2022/10/06 04:54:17;;;;;;;33.53;6.55;;;8.30;99.90;;;;;;4163480;28;20063;-56
2022/10/06 04:56:38;;;;;;;157.40;9.77;;;8.10;99.90;;;;;;4163913;28;20052;-56
2022/10/06 04:58:59;;;;;;;64.72;10.07;;;8.00;99.90;;;;;;4164104;28;20045;-56
2022/10/06 05:01:20;;;;;;;105.82;8.65;;;7.90;99.90;;;;;;4163818;28;20061;-56
2022/10/06 05:03:42;;;;;;;9.05;8.85;;;7.80;99.90;;;;;;4163792;28;20107;-56
2022/10/06 05:06:12;;;;;;;76.82;9.93;;;7.80;99.90;;;;;;4163587;28;20423;-55
2022/10/06 05:08:33;;;;;;;58.90;7.88;;;7.80;99.90;;;;;;4163552;28;20060;-56
2022/10/06 05:11:03;;;;;;;12.10;5.32;;;7.70;99.90;;;;;;4163577;28;20108;-56
2022/10/06 05:13:25;;;;;;;3.85;3.85;;;7.70;99.90;;;;;;4163374;28;20065;-56
2022/10/06 05:15:58;;;;;;;3.92;3.70;;;7.90;99.90;;;;;;4163707;28;20060;-56
2022/10/06 05:18:19;;;;;;;4.35;2.92;;;8.00;99.90;;;;;;4164731;28;20056;-56
2022/10/06 05:20:39;;;;;;;4.65;4.43;;;8.00;99.90;;;;;;4179731;28;20044;-56
2022/10/06 05:22:59;;;;;;;3.55;3.35;;;8.20;99.90;;;;;;4174377;28;20109;-57
2022/10/06 05:25:20;;;;;;;3.58;3.38;;;8.30;99.90;;;;;;4168566;28;20531;-57
2022/10/06 05:27:40;;;;;;;3.75;3.53;;;8.30;99.90;;;;;;4179982;28;20056;-57
2022/10/06 05:30:02;;;;;;;3.53;3.17;;;8.30;99.90;;;;;;4179889;28;20110;-57
2022/10/06 05:32:22;;;;;;;3.88;3.45;;;8.20;99.90;;;;;;4179571;28;20059;-57
2022/10/06 05:34:42;;;;;;;3.45;3.30;;;8.30;99.90;;;;;;4179716;28;20110;-56
2022/10/06 05:37:03;;;;;;;4.13;2.97;;;8.30;99.90;;;;;;4170082;28;20060;-57
2022/10/06 05:39:24;;;;;;;4.10;2.85;;;8.30;99.90;;;;;;4163178;28;20047;-57
2022/10/06 05:41:44;;;;;;;5.85;3.70;;;8.40;99.90;;;;;;4163378;28;20150;-56
2022/10/06 05:44:05;;;;;;;3.00;2.90;;;8.40;99.90;;;;;;4163175;28;20595;-57
2022/10/06 05:46:28;;;;;;;4.72;3.33;;;8.40;99.90;;;;;;4163454;28;20103;-57
2022/10/06 05:48:54;;;;;;;5.93;3.30;;;8.50;99.90;;;;;;4167823;28;20110;-57
2022/10/06 05:51:17;;;;;;;3.38;3.22;;;8.60;99.90;;;;;;4167161;28;20186;-57
2022/10/06 05:53:38;;;;;;;4.30;3.38;;;8.50;99.90;;;;;;4163169;28;20103;-57
2022/10/06 05:56:13;;;;;;;3.65;3.65;;;8.50;99.90;;;;;;4162965;28;20099;-57
2022/10/06 05:58:36;;;;;;;4.90;4.60;;;8.40;99.90;;;;;;4163092;28;20056;-56
2022/10/06 06:01:17;;;;;;;4.80;4.60;;;8.20;99.90;;;;;;4162872;28;20287;-56
2022/10/06 06:03:39;;;;;;;5.22;4.78;;;8.20;99.90;;;;;;4162829;28;20052;-56
2022/10/06 06:05:59;;;;;;;5.70;4.80;;;8.10;99.90;;;;;;4162612;28;20115;-56
2022/10/06 06:08:20;;;;;;;4.35;4.25;;;8.20;99.90;;;;;;4165795;28;20052;-57
2022/10/06 06:10:41;;;;;;;4.05;3.95;;;8.20;99.90;;;;;;4168365;28;20095;-56
2022/10/06 06:13:02;;;;;;;4.75;3.10;;;8.40;99.90;;;;;;4172609;28;20160;-57
2022/10/06 06:18:04;;;;;;;5.78;4.05;;;8.40;99.90;;;;;;4176406;28;20148;-57
2022/10/06 06:20:25;;;;;;;4.03;3.92;;;8.50;99.90;;;;;;4161423;28;20055;-56
2022/10/06 06:22:52;;;;;;;4.38;4.28;;;8.60;99.90;;;;;;4162384;28;20408;-56
2022/10/06 06:25:12;;;;;;;7.90;4.70;;;8.70;99.90;;;;;;4162704;28;20408;-56
2022/10/06 06:27:33;;;;;;;4.10;3.00;;;8.60;99.90;;;;;;4162520;28;20519;-56
2022/10/06 06:29:57;;;;;;;3.67;3.58;;;8.70;99.90;;;;;;4162515;28;20129;-57
2022/10/06 06:32:17;;;;;;;3.92;3.85;;;8.70;99.90;;;;;;4162634;28;20057;-57
2022/10/06 06:34:38;;;;;;;8.48;2.88;;;8.80;99.90;;;;;;4162213;28;20053;-57
2022/10/06 06:36:58;;;;;;;5.35;4.10;;;8.90;99.90;;;;;;4162289;28;20080;-56
2022/10/06 06:39:27;;;;;;;4.32;4.00;;;9.00;99.90;;;;;;4162396;28;20133;-57
2022/10/06 06:41:47;;;;;;;3.92;3.60;;;9.00;99.90;;;;;;4162520;28;20043;-57
2022/10/06 06:44:10;;;;;;;7.65;7.25;;;9.10;99.90;;;;;;4162606;28;20048;-57
2022/10/06 06:46:31;;;;;;;5.65;5.20;;;9.10;99.90;;;;;;4174165;28;20061;-57
2022/10/06 06:48:55;;;;;;;2.97;2.88;;;9.00;99.90;;;;;;4162340;28;20526;-57
2022/10/06 06:51:16;;;;;;;3.28;3.17;;;9.00;99.90;;;;;;4161878;28;20103;-57
2022/10/06 06:53:40;;;;;;;4.00;3.90;;;9.20;99.90;;;;;;4162476;28;20065;-57
2022/10/06 06:56:00;;;;;;;3.25;3.00;;;9.40;99.90;;;;;;4162155;28;20103;-56
2022/10/06 06:58:21;;;;;;;4.03;2.47;;;9.60;99.90;;;;;;4158579;28;20060;-57
2022/10/06 07:00:41;;;;;;;2.83;2.70;;;9.80;99.90;;;;;;4161909;28;20060;-58
2022/10/06 07:03:02;;;;;;;3.75;3.40;;;10.00;99.90;;;;;;4161957;28;20524;-57
2022/10/06 07:05:22;;;;;;;3.60;3.50;;;10.10;99.90;;;;;;4162117;28;20068;-57
2022/10/06 07:07:43;;;;;;;2.80;2.75;;;10.00;99.90;;;;;;4161867;28;20057;-57
2022/10/06 07:10:04;;;;;;;3.17;3.08;;;10.10;99.90;;;;;;4162306;28;20125;-57
2022/10/06 07:12:24;;;;;;;3.35;3.10;;;10.10;99.90;;;;;;4176314;28;20103;-57
2022/10/06 07:25:24;;;;;;;2.03;2.03;;;10.80;99.90;;;;;;4165397;28;20052;-57
2022/10/06 07:27:49;;;;;;;3.10;2.90;;;10.90;99.90;;;;;;4165382;28;20052;-57
2022/10/06 07:30:19;;;;;;;2.08;1.90;;;11.00;99.90;;;;;;4165550;28;20067;-57
2022/10/06 07:32:40;;;;;;;2.63;2.40;;;11.10;99.90;;;;;;4165276;28;20064;-57
2022/10/06 07:35:03;;;;;;;1.73;1.73;;;11.30;99.90;;;;;;4165174;28;20543;-56
2022/10/06 07:37:24;;;;;;;2.50;2.45;;;11.30;99.90;;;;;;4164810;28;20110;-57
2022/10/06 07:39:48;;;;;;;2.20;2.05;;;11.30;99.90;;;;;;4165141;28;20072;-56
2022/10/06 07:42:14;;;;;;;2.20;1.98;;;11.40;99.90;;;;;;4176344;28;20056;-57
2022/10/06 07:44:34;;;;;;;1.95;1.60;;;11.60;99.90;;;;;;4165207;28;20058;-57
2022/10/06 07:46:55;;;;;;;2.78;1.70;;;11.80;99.90;;;;;;4165153;28;20056;-56
2022/10/06 07:49:16;;;;;;;3.08;2.10;;;12.00;99.90;;;;;;4165142;28;20059;-56
2022/10/06 07:51:36;;;;;;;2.80;1.55;;;12.10;99.90;;;;;;4164946;28;20115;-57
2022/10/06 07:53:57;;;;;;;1.60;1.60;;;12.30;99.90;;;;;;4164939;28;20060;-57
2022/10/06 07:56:19;;;;;;;5.18;1.40;;;12.50;99.90;;;;;;4164891;28;20370;-57
2022/10/06 07:58:40;;;;;;;1.50;1.50;;;12.70;99.90;;;;;;4165328;28;20084;-57
2022/10/06 08:01:09;;;;;;;4.97;1.77;;;12.90;99.90;;;;;;4164832;28;20076;-57
2022/10/06 08:03:29;;;;;;;2.03;1.38;;;12.90;99.90;;;;;;4164697;28;20091;-57
2022/10/06 08:05:58;;;;;;;1.60;1.50;;;12.90;99.90;;;;;;4165099;28;20117;-57
2022/10/06 08:08:18;;;;;;;1.40;1.30;;;13.00;99.90;;;;;;4176105;28;20594;-57
2022/10/06 08:10:43;;;;;;;1.63;1.50;;;13.10;99.90;;;;;;4179086;28;20080;-57
2022/10/06 08:13:07;;;;;;;3.13;1.42;;;13.40;99.90;;;;;;4164920;28;20061;-57
2022/10/06 08:15:27;;;;;;;1.75;1.75;;;13.50;99.90;;;;;;4164997;28;20103;-57
2022/10/06 08:17:48;;;;;;;1.63;1.30;;;13.70;99.90;;;;;;4164543;28;20067;-56
2022/10/06 08:20:27;;;;;;;4.07;1.60;;;13.90;99.90;;;;;;4164275;28;20045;-56
2022/10/06 08:23:07;;;;;;;1.85;1.52;;;14.10;99.90;;;;;;4164573;28;20440;-58
2022/10/06 08:25:28;;;;;;;1.20;1.20;;;14.30;99.90;;;;;;4164267;28;20413;-56
2022/10/06 08:27:48;;;;;;;3.42;1.75;;;14.40;99.90;;;;;;4164632;28;20140;-57
2022/10/06 08:30:13;;;;;;;2.25;1.30;;;14.60;99.90;;;;;;4163619;28;20161;-58
2022/10/06 08:32:33;;;;;;;1.20;1.15;;;14.70;99.90;;;;;;4164240;28;20535;-56
2022/10/06 08:34:54;;;;;;;3.60;1.20;;;14.80;99.90;;;;;;4164047;28;20482;-56
2022/10/06 08:37:19;;;;;;;1.90;1.00;;;15.00;99.90;;;;;;4165502;28;20420;-57
2022/10/06 08:39:41;;;;;;;1.02;1.02;;;15.10;99.90;;;;;;4171483;28;20047;-57
2022/10/06 08:42:02;;;;;;;0.98;0.98;;;15.20;99.90;;;;;;4164102;28;20095;-57
2022/10/06 08:44:37;;;;;;;1.10;1.10;;;15.40;99.90;;;;;;4164431;28;20133;-57
2022/10/06 08:47:12;;;;;;;1.10;1.00;;;15.50;99.90;;;;;;4164034;28;20052;-57
2022/10/06 08:49:45;;;;;;;1.00;1.00;;;15.80;99.90;;;;;;4164187;28;20111;-57
2022/10/06 08:52:09;;;;;;;3.80;1.42;;;15.90;99.90;;;;;;4163830;28;20056;-57
2022/10/06 08:54:44;;;;;;;1.00;1.00;;;16.10;99.90;;;;;;4164273;28;20118;-57
2022/10/06 08:57:20;;;;;;;1.00;1.00;;;16.20;99.90;;;;;;4164240;28;20088;-57
2022/10/06 08:59:46;;;;;;;1.35;1.35;;;16.30;99.90;;;;;;4164107;28;20048;-57
2022/10/06 09:02:29;;;;;;;4.07;1.00;;;16.50;99.90;;;;;;4163881;28;20605;-57
2022/10/06 09:04:50;;;;;;;1.17;0.95;;;16.70;99.90;;;;;;4177783;28;20094;-57
2022/10/06 09:07:15;;;;;;;1.10;1.10;;;16.90;99.90;;;;;;4176351;28;20052;-57
2022/10/06 09:09:54;;;;;;;2.25;1.13;;;17.20;99.90;;;;;;4163753;28;20115;-56
2022/10/06 09:12:34;;;;;;;1.20;1.10;;;17.40;99.90;;;;;;4163886;28;20507;-57
2022/10/06 09:15:01;;;;;;;1.30;1.20;;;17.40;99.90;;;;;;4163607;28;20060;-57
2022/10/06 09:17:31;;;;;;;2.83;1.40;;;17.60;99.90;;;;;;4163761;28;20056;-57
2022/10/06 09:19:51;;;;;;;1.00;0.90;;;17.90;99.90;;;;;;4163352;28;20444;-57
2022/10/06 09:22:21;;;;;;;0.90;0.90;;;18.00;99.90;;;;;;4163450;28;20099;-57
2022/10/06 09:24:48;;;;;;;4.68;1.10;;;18.10;99.90;;;;;;4163751;28;20115;-58
2022/10/06 09:27:19;;;;;;;0.98;0.90;;;18.20;99.90;;;;;;4163767;28;20179;-56
2022/10/06 09:29:40;;;;;;;3.17;0.90;;;18.50;99.90;;;;;;4163422;28;20056;-56
2022/10/06 09:32:01;;;;;;;3.88;0.80;;;18.70;99.90;;;;;;4163699;28;20053;-57
2022/10/06 09:34:31;;;;;;;2.53;1.17;;;19.20;99.90;;;;;;4162948;28;20048;-57
2022/10/06 09:36:59;;;;;;;0.80;0.80;;;19.30;99.90;;;;;;4166602;28;20107;-58
2022/10/06 09:39:25;;;;;;;2.40;0.90;;;19.40;99.90;;;;;;4178081;28;20051;-57
2022/10/06 09:41:47;;;;;;;0.90;0.90;;;19.60;99.90;;;;;;4176178;28;20511;-57
2022/10/06 09:44:24;;;;;;;4.57;1.27;;;19.70;99.90;;;;;;4170774;28;20048;-58
2022/10/06 09:46:45;;;;;;;0.82;0.80;;;19.70;99.90;;;;;;4168561;28;20412;-58
2022/10/06 09:49:06;;;;;;;2.00;0.90;;;19.90;99.90;;;;;;4173721;28;20487;-57
2022/10/06 09:51:27;;;;;;;1.13;0.90;;;19.90;99.90;;;;;;4162976;28;20052;-57
2022/10/06 09:54:21;;;;;;;0.90;0.90;;;19.90;99.90;;;;;;4178162;28;20055;-57
2022/10/06 09:56:43;;;;;;;;;;;20.20;99.90;;;;;;4177043;28;20527;-58
2022/10/06 09:59:16;;;;;;;0.80;0.80;;;20.30;99.90;;;;;;4164310;28;20450;-57
2022/10/06 10:01:37;;;;;;;0.85;0.85;;;20.40;99.90;;;;;;4149412;28;20052;-57
2022/10/06 10:04:01;;;;;;;1.15;1.05;;;20.70;99.90;;;;;;4173060;28;20045;-57
2022/10/06 10:06:40;;;;;;;2.85;0.70;;;21.10;99.90;;;;;;4167924;28;20043;-57
2022/10/06 10:09:20;;;;;;;3.15;0.75;;;21.00;99.90;;;;;;4160578;28;20691;-57
2022/10/06 10:14:21;;;;;;;2.45;0.70;;;21.70;99.90;;;;;;4174576;28;20419;-58
2022/10/06 10:16:43;;;;;;;0.60;0.60;;;21.60;99.90;;;;;;4176030;28;20617;-58
2022/10/06 10:19:04;;;;;;;0.88;0.80;;;21.80;99.90;;;;;;4174415;28;20075;-57
2022/10/06 10:21:29;;;;;;;2.75;0.80;;;22.10;99.90;;;;;;4173154;28;20055;-57
2022/10/06 10:23:55;;;;;;;0.82;0.70;;;22.90;99.90;;;;;;4175533;28;20056;-56
2022/10/06 10:26:40;;;;;;;0.70;0.70;;;22.90;99.90;;;;;;4174641;28;20052;-55
2022/10/06 10:29:05;;;;;;;2.63;0.70;;;23.00;99.90;;;;;;4171530;28;20098;-56
2022/10/06 10:31:47;;;;;;;3.78;0.70;;;22.70;99.90;;;;;;4172602;28;20446;-55
2022/10/06 10:34:11;;;;;;;1.83;0.60;;;22.90;99.90;;;;;;4167056;28;20575;-55
2022/10/06 10:36:53;;;;;;;0.73;0.60;;;23.60;99.90;;;;;;4167233;28;20423;-56
2022/10/06 10:39:30;;;;;;;1.67;0.68;;;23.90;99.90;;;;;;4169572;28;20052;-56
2022/10/06 10:41:54;;;;;;;1.13;0.57;;;24.00;99.90;;;;;;4165224;28;20118;-55
2022/10/06 10:44:42;;;;;;;0.88;0.88;;;23.70;99.90;;;;;;4169711;28;20083;-56
2022/10/06 10:47:18;;;;;;;0.77;0.60;;;24.10;99.90;;;;;;4169030;28;20483;-56
2022/10/06 10:49:39;;;;;;;0.60;0.60;;;24.10;99.90;;;;;;4169303;28;20135;-56
2022/10/06 10:52:10;;;;;;;0.60;0.60;;;24.20;99.90;;;;;;4168791;28;20060;-56
2022/10/06 10:54:44;;;;;;;0.60;0.60;;;23.90;99.20;;;;;;4165945;28;20093;-56
2022/10/06 10:57:18;;;;;;;3.08;0.60;;;23.80;99.90;;;;;;4166790;28;20169;-56
2022/10/06 10:59:59;;;;;;;0.90;0.90;;;24.50;99.50;;;;;;4165552;28;20055;-56
2022/10/06 11:02:21;;;;;;;2.60;0.60;;;24.50;98.40;;;;;;4162482;28;20048;-56
2022/10/06 11:04:49;;;;;;;0.50;0.50;;;24.00;95.60;;;;;;4163596;28;20095;-56
2022/10/06 11:07:25;;;;;;;0.88;0.50;;;24.60;97.20;;;;;;4168446;28;20091;-56
2022/10/06 11:10:05;;;;;;;0.50;0.50;;;24.50;93.50;;;;;;4168338;28;20091;-56
2022/10/06 11:13:03;;;;;;;2.22;0.60;;;24.30;93.20;;;;;;4165105;28;20052;-56
2022/10/06 11:15:45;;;;;;;2.45;0.43;;;24.40;92.20;;;;;;4168323;28;20509;-56
2022/10/06 11:18:16;;;;;;;1.23;0.40;;;24.70;90.40;;;;;;4168561;28;20056;-56
2022/10/06 11:21:05;;;;;;;0.50;0.50;;;25.30;85.60;;;;;;4167862;28;20056;-56
2022/10/06 11:23:48;;;;;;;0.40;0.40;;;25.50;91.50;;;;;;4168319;28;20067;-56
2022/10/06 11:26:17;;;;;;;0.50;0.50;;;25.20;87.30;;;;;;4169227;28;20094;-56
2022/10/06 11:28:57;;;;;;;0.50;0.50;;;25.30;89.30;;;;;;4167284;28;20048;-56
2022/10/06 11:31:39;;;;;;;0.50;0.50;;;25.00;86.10;;;;;;4168571;28;20140;-56
2022/10/06 11:34:05;;;;;;;0.40;0.40;;;25.40;91.30;;;;;;4167716;28;20061;-56
2022/10/06 11:36:47;;;;;;;1.23;0.50;;;25.20;90.70;;;;;;4168563;28;20060;-56
2022/10/06 11:39:19;;;;;;;0.75;0.50;;;25.30;92.70;;;;;;4169617;28;20061;-56
2022/10/06 11:41:44;;;;;;;;;;;25.70;93.40;;;;;;4167327;28;20061;-57
2022/10/06 11:44:26;;;;;;;0.82;0.40;;;26.20;92.90;;;;;;4168318;28;20183;-57
2022/10/06 11:46:54;;;;;;;0.40;0.40;;;26.40;91.80;;;;;;4168564;28;20060;-57
2022/10/06 11:49:31;;;;;;;0.50;0.50;;;25.70;92.80;;;;;;4167504;28;20052;-56
2022/10/06 11:51:51;;;;;;;0.40;0.40;;;25.50;91.20;;;;;;4164804;28;20527;-56
2022/10/06 11:54:43;;;;;;;1.33;0.40;;;25.50;92.10;;;;;;4169346;28;20153;-56
2022/10/06 11:57:23;;;;;;;1.25;0.40;;;25.20;90.00;;;;;;4164904;28;20614;-56
2022/10/06 11:59:51;;;;;;;1.52;0.50;;;25.70;92.60;;;;;;4168551;28;20064;-56
2022/10/06 12:02:31;;;;;;;0.50;0.50;;;25.90;90.80;;;;;;4168395;28;20400;-56
2022/10/06 12:05:11;;;;;;;0.47;0.47;;;25.90;90.90;;;;;;4169627;28;20047;-56
2022/10/06 12:07:51;;;;;;;0.50;0.50;;;25.70;90.10;;;;;;4171767;28;20117;-55
2022/10/06 12:10:48;;;;;;;0.50;0.50;;;25.90;90.90;;;;;;4170204;28;20056;-56
2022/10/06 12:13:39;;;;;;;0.50;0.50;;;25.60;91.30;;;;;;4171583;28;20052;-57
2022/10/06 12:16:37;;;;;;;0.50;0.50;;;25.20;90.70;;;;;;4171731;28;20122;-56
2022/10/06 12:19:30;;;;;;;1.50;1.40;;;25.50;91.60;;;;;;4171965;28;20052;-57
2022/10/06 12:21:54;;;;;;;0.50;0.50;;;25.50;90.70;;;;;;4171522;28;20056;-56
2022/10/06 12:24:27;;;;;;;0.95;0.50;;;25.70;90.40;;;;;;4171429;28;20118;-56
2022/10/06 12:26:53;;;;;;;1.70;0.88;;;26.30;90.80;;;;;;4171514;28;20111;-54
2022/10/06 12:29:41;;;;;;;0.50;0.50;;;26.80;91.60;;;;;;4169861;28;20076;-57
2022/10/06 12:32:46;;;;;;;1.00;0.50;;;26.80;92.10;;;;;;4170582;28;20136;-58
2022/10/06 12:35:06;;;;;;;0.50;0.50;;;26.70;90.30;;;;;;4171171;28;20052;-57
2022/10/06 12:37:27;;;;;;;1.45;0.60;;;26.90;90.70;;;;;;4170891;28;20368;-57
2022/10/06 12:39:47;;;;;;;0.50;0.50;;;26.70;90.60;;;;;;4167040;28;20059;-57
2022/10/06 12:42:26;;;;;;;0.50;0.50;;;26.60;90.90;;;;;;4171466;28;20059;-56
2022/10/06 12:44:49;;;;;;;1.17;0.43;;;27.00;91.50;;;;;;4170842;28;20044;-57
2022/10/06 12:47:36;;;;;;;1.20;0.50;;;27.00;90.10;;;;;;4167386;28;20055;-57
2022/10/06 12:50:06;;;;;;;0.60;0.50;;;26.90;90.70;;;;;;4171254;28;20137;-57
2022/10/06 12:52:32;;;;;;;0.40;0.40;;;27.40;91.10;;;;;;4168926;28;20404;-57
2022/10/06 12:55:11;;;;;;;0.50;0.50;;;27.50;88.70;;;;;;4170204;28;20052;-57
2022/10/06 12:57:49;;;;;;;0.98;0.50;;;26.50;89.70;;;;;;4168800;28;20108;-57
2022/10/06 13:00:34;;;;;;;0.60;0.50;;;26.20;90.80;;;;;;4164676;28;20588;-57